createdAt,value
2023-06-04T00:00:03.972Z,94684.00
2023-06-04T00:01:04.090Z,94684.00
2023-06-04T00:02:04.009Z,94682.00
2023-06-04T00:03:04.181Z,94680.00
2023-06-04T00:04:04.314Z,94682.00
2023-06-04T00:05:04.169Z,94680.00
2023-06-04T00:06:04.220Z,94680.00
2023-06-04T00:07:04.291Z,94678.00
2023-06-04T00:08:04.316Z,94680.00
2023-06-04T00:09:04.367Z,94676.00
2023-06-04T00:10:04.404Z,94678.00
2023-06-04T00:11:04.616Z,94670.00
2023-06-04T00:12:04.562Z,94670.00
2023-06-04T00:13:04.564Z,94668.00
2023-06-04T00:14:04.651Z,94668.00
2023-06-04T00:15:04.692Z,94672.00
2023-06-04T00:16:04.754Z,94672.00
2023-06-04T00:17:04.797Z,94672.00
2023-06-04T00:18:04.885Z,94670.00
2023-06-04T00:19:04.883Z,94676.00
2023-06-04T00:20:04.949Z,94676.00
2023-06-04T00:21:05.202Z,94676.00
2023-06-04T00:22:05.029Z,94676.00
2023-06-04T00:23:05.082Z,94674.00
2023-06-04T00:24:05.193Z,94672.00
2023-06-04T00:25:05.193Z,94672.00
2023-06-04T00:26:05.262Z,94674.00
2023-06-04T00:27:05.308Z,94674.00
2023-06-04T00:28:05.345Z,94676.00
2023-06-04T00:29:05.370Z,94672.00
2023-06-04T00:30:05.438Z,94670.00
2023-06-04T00:31:05.691Z,94678.00
2023-06-04T00:32:05.803Z,94672.00
2023-06-04T00:33:05.757Z,94676.00
2023-06-04T00:34:05.701Z,94668.00
2023-06-04T00:35:05.689Z,94674.00
2023-06-04T00:36:05.743Z,94674.00
2023-06-04T00:37:05.815Z,94674.00
2023-06-04T00:38:05.853Z,94666.00
2023-06-04T00:39:05.923Z,94668.00
2023-06-04T00:40:05.972Z,94670.00
2023-06-04T00:41:06.248Z,94668.00
2023-06-04T00:42:06.076Z,94666.00
2023-06-04T00:43:06.144Z,94666.00
2023-06-04T00:44:06.168Z,94668.00
2023-06-04T00:45:06.224Z,94668.00
2023-06-04T00:46:06.327Z,94670.00
2023-06-04T00:47:06.335Z,94666.00
2023-06-04T00:48:06.389Z,94672.00
2023-06-04T00:49:06.416Z,94670.00
2023-06-04T00:50:06.454Z,94670.00
2023-06-04T00:51:06.768Z,94666.00
2023-06-04T00:52:06.570Z,94668.00
2023-06-04T00:53:06.637Z,94666.00
2023-06-04T00:54:06.712Z,94664.00
2023-06-04T00:55:06.730Z,94666.00
2023-06-04T00:56:06.793Z,94670.00
2023-06-04T00:57:06.833Z,94672.00
2023-06-04T00:58:06.871Z,94674.00
2023-06-04T00:59:06.923Z,94676.00
2023-06-04T01:00:06.982Z,94676.00
2023-06-04T01:01:07.265Z,94676.00
2023-06-04T01:02:07.093Z,94676.00
2023-06-04T01:03:07.236Z,94674.00
2023-06-04T01:04:07.236Z,94674.00
2023-06-04T01:05:07.264Z,94674.00
2023-06-04T01:06:07.287Z,94674.00
2023-06-04T01:07:07.333Z,94674.00
2023-06-04T01:08:07.406Z,94676.00
2023-06-04T01:09:07.443Z,94676.00
2023-06-04T01:10:07.500Z,94676.00
2023-06-04T01:11:07.723Z,94672.00
2023-06-04T01:12:07.630Z,94672.00
2023-06-04T01:13:07.701Z,94672.00
2023-06-04T01:14:07.707Z,94670.00
2023-06-04T01:15:07.761Z,94666.00
2023-06-04T01:16:07.795Z,94668.00
2023-06-04T01:17:07.888Z,94666.00
2023-06-04T01:18:08.014Z,94666.00
2023-06-04T01:19:07.975Z,94664.00
2023-06-04T01:20:08.019Z,94664.00
2023-06-04T01:21:08.237Z,94662.00
2023-06-04T01:22:08.110Z,94662.00
2023-06-04T01:23:08.182Z,94664.00
2023-06-04T01:24:08.340Z,94664.00
2023-06-04T01:25:08.316Z,94666.00
2023-06-04T01:26:08.326Z,94668.00
2023-06-04T01:27:08.400Z,94666.00
2023-06-04T01:28:08.432Z,94666.00
2023-06-04T01:29:08.483Z,94666.00
2023-06-04T01:30:08.562Z,94664.00
2023-06-04T01:31:08.997Z,94662.00
2023-06-04T01:32:08.646Z,94660.00
2023-06-04T01:33:08.750Z,94664.00
2023-06-04T01:34:08.764Z,94660.00
2023-06-04T01:35:08.813Z,94658.00
2023-06-04T01:36:08.859Z,94660.00
2023-06-04T01:37:08.888Z,94660.00
2023-06-04T01:38:08.944Z,94662.00
2023-06-04T01:39:08.981Z,94660.00
2023-06-04T01:40:09.028Z,94660.00
2023-06-04T01:41:09.087Z,94664.00
2023-06-04T01:42:09.102Z,94664.00
2023-06-04T01:43:09.178Z,94666.00
2023-06-04T01:44:09.226Z,94666.00
2023-06-04T01:45:09.261Z,94668.00
2023-06-04T01:46:09.356Z,94668.00
2023-06-04T01:47:09.389Z,94668.00
2023-06-04T01:48:09.460Z,94670.00
2023-06-04T01:49:09.486Z,94670.00
2023-06-04T01:50:09.551Z,94666.00
2023-06-04T01:51:09.875Z,94666.00
2023-06-04T01:52:09.651Z,94668.00
2023-06-04T01:53:09.682Z,94666.00
2023-06-04T01:54:09.744Z,94668.00
2023-06-04T01:55:09.778Z,94670.00
2023-06-04T01:56:09.810Z,94672.00
2023-06-04T01:57:09.873Z,94670.00
2023-06-04T01:58:09.912Z,94672.00
2023-06-04T01:59:09.977Z,94672.00
2023-06-04T02:00:10.044Z,94672.00
2023-06-04T02:01:10.057Z,94672.00
2023-06-04T02:02:10.186Z,94674.00
2023-06-04T02:03:10.284Z,94676.00
2023-06-04T02:04:10.180Z,94676.00
2023-06-04T02:05:10.209Z,94676.00
2023-06-04T02:06:10.268Z,94676.00
2023-06-04T02:07:10.267Z,94678.00
2023-06-04T02:08:10.318Z,94684.00
2023-06-04T02:09:10.389Z,94682.00
2023-06-04T02:10:10.392Z,94686.00
2023-06-04T02:11:10.449Z,94684.00
2023-06-04T02:12:10.479Z,94684.00
2023-06-04T02:13:10.525Z,94686.00
2023-06-04T02:14:10.613Z,94682.00
2023-06-04T02:15:10.643Z,94684.00
2023-06-04T02:16:10.684Z,94684.00
2023-06-04T02:17:10.703Z,94686.00
2023-06-04T02:18:10.804Z,94686.00
2023-06-04T02:19:10.801Z,94684.00
2023-06-04T02:20:10.948Z,94686.00
2023-06-04T02:21:10.858Z,94686.00
2023-06-04T02:22:10.920Z,94686.00
2023-06-04T02:23:10.962Z,94686.00
2023-06-04T02:24:11.029Z,94686.00
2023-06-04T02:25:11.074Z,94688.00
2023-06-04T02:26:11.148Z,94686.00
2023-06-04T02:27:11.166Z,94686.00
2023-06-04T02:28:11.209Z,94688.00
2023-06-04T02:29:11.266Z,94686.00
2023-06-04T02:30:11.285Z,94682.00
2023-06-04T02:31:11.345Z,94682.00
2023-06-04T02:32:11.425Z,94684.00
2023-06-04T02:33:11.526Z,94684.00
2023-06-04T02:34:11.505Z,94684.00
2023-06-04T02:35:11.525Z,94688.00
2023-06-04T02:36:11.545Z,94692.00
2023-06-04T02:37:11.588Z,94692.00
2023-06-04T02:38:11.685Z,94692.00
2023-06-04T02:39:11.706Z,94696.00
2023-06-04T02:40:11.756Z,94694.00
2023-06-04T02:41:11.820Z,94692.00
2023-06-04T02:42:11.845Z,94696.00
2023-06-04T02:43:11.923Z,94692.00
2023-06-04T02:44:11.984Z,94692.00
2023-06-04T02:45:12.028Z,94692.00
2023-06-04T02:46:12.093Z,94692.00
2023-06-04T02:47:12.126Z,94692.00
2023-06-04T02:48:12.173Z,94692.00
2023-06-04T02:49:12.225Z,94690.00
2023-06-04T02:50:12.239Z,94690.00
2023-06-04T02:51:12.264Z,94690.00
2023-06-04T02:52:12.300Z,94692.00
2023-06-04T02:53:12.346Z,94690.00
2023-06-04T02:54:12.401Z,94688.00
2023-06-04T02:55:12.445Z,94688.00
2023-06-04T02:56:12.476Z,94684.00
2023-06-04T02:57:12.524Z,94684.00
2023-06-04T02:58:12.555Z,94686.00
2023-06-04T02:59:14.596Z,94682.00
2023-06-04T03:00:12.664Z,94682.00
2023-06-04T03:01:12.756Z,94682.00
2023-06-04T03:02:12.729Z,94682.00
2023-06-04T03:03:12.830Z,94680.00
2023-06-04T03:04:12.804Z,94682.00
2023-06-04T03:05:12.876Z,94682.00
2023-06-04T03:06:12.937Z,94680.00
2023-06-04T03:07:13.015Z,94682.00
2023-06-04T03:08:13.049Z,94684.00
2023-06-04T03:09:13.079Z,94684.00
2023-06-04T03:10:13.153Z,94684.00
2023-06-04T03:11:13.151Z,94688.00
2023-06-04T03:12:13.323Z,94686.00
2023-06-04T03:13:13.261Z,94690.00
2023-06-04T03:14:13.288Z,94688.00
2023-06-04T03:15:13.375Z,94692.00
2023-06-04T03:16:13.419Z,94694.00
2023-06-04T03:17:13.408Z,94692.00
2023-06-04T03:18:13.483Z,94694.00
2023-06-04T03:19:13.510Z,94698.00
2023-06-04T03:20:13.546Z,94700.00
2023-06-04T03:21:13.584Z,94702.00
2023-06-04T03:22:13.640Z,94700.00
2023-06-04T03:23:13.737Z,94702.00
2023-06-04T03:24:13.752Z,94702.00
2023-06-04T03:25:13.807Z,94705.00
2023-06-04T03:26:13.836Z,94705.00
2023-06-04T03:27:13.857Z,94709.00
2023-06-04T03:28:13.908Z,94709.00
2023-06-04T03:29:13.940Z,94713.00
2023-06-04T03:30:13.973Z,94715.00
2023-06-04T03:31:14.021Z,94717.00
2023-06-04T03:32:13.997Z,94719.00
2023-06-04T03:33:14.048Z,94719.00
2023-06-04T03:34:14.122Z,94715.00
2023-06-04T03:35:14.121Z,94721.00
2023-06-04T03:36:14.168Z,94719.00
2023-06-04T03:37:14.213Z,94721.00
2023-06-04T03:38:14.269Z,94723.00
2023-06-04T03:39:14.320Z,94721.00
2023-06-04T03:40:14.425Z,94723.00
2023-06-04T03:41:14.356Z,94721.00
2023-06-04T03:42:14.388Z,94723.00
2023-06-04T03:43:14.398Z,94723.00
2023-06-04T03:44:14.466Z,94725.00
2023-06-04T03:45:14.484Z,94723.00
2023-06-04T03:46:14.541Z,94723.00
2023-06-04T03:47:14.605Z,94723.00
2023-06-04T03:48:14.541Z,94727.00
2023-06-04T03:49:14.564Z,94723.00
2023-06-04T03:50:14.567Z,94721.00
2023-06-04T03:51:14.576Z,94721.00
2023-06-04T03:52:14.592Z,94723.00
2023-06-04T03:53:14.619Z,94719.00
2023-06-04T03:54:14.666Z,94721.00
2023-06-04T03:55:14.652Z,94721.00
2023-06-04T03:56:14.677Z,94725.00
2023-06-04T03:57:14.689Z,94725.00
2023-06-04T03:58:14.718Z,94729.00
2023-06-04T03:59:14.810Z,94729.00
2023-06-04T04:00:14.794Z,94731.00
2023-06-04T04:01:14.834Z,94727.00
2023-06-04T04:02:14.875Z,94733.00
2023-06-04T04:03:14.985Z,94733.00
2023-06-04T04:04:15.056Z,94733.00
2023-06-04T04:05:17.177Z,94735.00
2023-06-04T04:06:15.049Z,94739.00
2023-06-04T04:07:15.094Z,94739.00
2023-06-04T04:08:15.126Z,94737.00
2023-06-04T04:09:15.197Z,94737.00
2023-06-04T04:10:15.159Z,94739.00
2023-06-04T04:11:15.207Z,94735.00
2023-06-04T04:12:15.262Z,94737.00
2023-06-04T04:13:15.282Z,94741.00
2023-06-04T04:14:15.351Z,94739.00
2023-06-04T04:15:15.354Z,94741.00
2023-06-04T04:16:15.410Z,94741.00
2023-06-04T04:17:15.475Z,94741.00
2023-06-04T04:18:15.463Z,94741.00
2023-06-04T04:19:15.591Z,94741.00
2023-06-04T04:20:15.509Z,94743.00
2023-06-04T04:21:15.557Z,94741.00
2023-06-04T04:22:15.581Z,94745.00
2023-06-04T04:23:15.618Z,94745.00
2023-06-04T04:24:15.673Z,94745.00
2023-06-04T04:25:15.700Z,94747.00
2023-06-04T04:26:15.725Z,94747.00
2023-06-04T04:27:15.777Z,94749.00
2023-06-04T04:28:15.801Z,94751.00
2023-06-04T04:29:15.885Z,94753.00
2023-06-04T04:30:15.862Z,94749.00
2023-06-04T04:31:15.997Z,94749.00
2023-06-04T04:32:15.921Z,94747.00
2023-06-04T04:33:15.969Z,94747.00
2023-06-04T04:34:16.040Z,94749.00
2023-06-04T04:35:16.038Z,94749.00
2023-06-04T04:36:16.071Z,94751.00
2023-06-04T04:37:16.082Z,94749.00
2023-06-04T04:38:16.137Z,94749.00
2023-06-04T04:39:16.166Z,94751.00
2023-06-04T04:40:16.188Z,94751.00
2023-06-04T04:41:16.241Z,94753.00
2023-06-04T04:42:16.275Z,94749.00
2023-06-04T04:43:16.291Z,94749.00
2023-06-04T04:44:16.366Z,94749.00
2023-06-04T04:45:16.373Z,94745.00
2023-06-04T04:46:16.520Z,94745.00
2023-06-04T04:47:16.462Z,94747.00
2023-06-04T04:48:16.471Z,94751.00
2023-06-04T04:49:16.506Z,94751.00
2023-06-04T04:50:16.524Z,94753.00
2023-06-04T04:51:16.549Z,94753.00
2023-06-04T04:52:16.568Z,94753.00
2023-06-04T04:53:16.587Z,94753.00
2023-06-04T04:54:16.646Z,94753.00
2023-06-04T04:55:16.687Z,94751.00
2023-06-04T04:56:16.713Z,94751.00
2023-06-04T04:57:16.749Z,94753.00
2023-06-04T04:58:16.804Z,94753.00
2023-06-04T04:59:16.868Z,94756.00
2023-06-04T05:00:16.859Z,94756.00
2023-06-04T05:01:16.954Z,94756.00
2023-06-04T05:02:16.996Z,94756.00
2023-06-04T05:03:17.002Z,94758.00
2023-06-04T05:04:17.096Z,94758.00
2023-06-04T05:05:17.052Z,94760.00
2023-06-04T05:06:17.104Z,94758.00
2023-06-04T05:07:17.185Z,94756.00
2023-06-04T05:08:17.182Z,94760.00
2023-06-04T05:09:17.221Z,94760.00
2023-06-04T05:10:17.249Z,94760.00
2023-06-04T05:11:17.262Z,94760.00
2023-06-04T05:12:17.288Z,94760.00
2023-06-04T05:13:17.371Z,94758.00
2023-06-04T05:14:17.397Z,94760.00
2023-06-04T05:15:17.430Z,94760.00
2023-06-04T05:16:17.498Z,94760.00
2023-06-04T05:17:17.531Z,94760.00
2023-06-04T05:18:17.570Z,94758.00
2023-06-04T05:19:17.603Z,94760.00
2023-06-04T05:20:17.607Z,94760.00
2023-06-04T05:21:17.731Z,94762.00
2023-06-04T05:22:17.671Z,94760.00
2023-06-04T05:23:17.742Z,94760.00
2023-06-04T05:24:17.733Z,94758.00
2023-06-04T05:25:17.811Z,94760.00
2023-06-04T05:26:17.806Z,94762.00
2023-06-04T05:27:17.834Z,94764.00
2023-06-04T05:28:17.896Z,94760.00
2023-06-04T05:29:17.907Z,94764.00
2023-06-04T05:30:17.953Z,94764.00
2023-06-04T05:31:17.942Z,94766.00
2023-06-04T05:32:18.001Z,94764.00
2023-06-04T05:33:18.027Z,94766.00
2023-06-04T05:34:18.067Z,94768.00
2023-06-04T05:35:18.113Z,94768.00
2023-06-04T05:36:18.139Z,94770.00
2023-06-04T05:37:18.172Z,94770.00
2023-06-04T05:38:18.273Z,94770.00
2023-06-04T05:39:18.251Z,94768.00
2023-06-04T05:40:18.293Z,94768.00
2023-06-04T05:41:18.314Z,94766.00
2023-06-04T05:42:18.325Z,94764.00
2023-06-04T05:43:18.375Z,94764.00
2023-06-04T05:44:18.392Z,94768.00
2023-06-04T05:45:18.416Z,94768.00
2023-06-04T05:46:18.516Z,94768.00
2023-06-04T05:47:18.492Z,94768.00
2023-06-04T05:48:18.497Z,94770.00
2023-06-04T05:49:18.603Z,94770.00
2023-06-04T05:50:18.615Z,94770.00
2023-06-04T05:51:18.616Z,94770.00
2023-06-04T05:52:18.648Z,94772.00
2023-06-04T05:53:18.680Z,94774.00
2023-06-04T05:54:18.739Z,94774.00
2023-06-04T05:55:18.758Z,94776.00
2023-06-04T05:56:18.816Z,94776.00
2023-06-04T05:57:18.880Z,94780.00
2023-06-04T05:58:18.890Z,94778.00
2023-06-04T05:59:18.990Z,94778.00
2023-06-04T06:00:19.002Z,94776.00
2023-06-04T06:01:19.024Z,94778.00
2023-06-04T06:02:19.114Z,94778.00
2023-06-04T06:03:19.225Z,94780.00
2023-06-04T06:04:19.161Z,94780.00
2023-06-04T06:05:19.178Z,94778.00
2023-06-04T06:06:19.198Z,94776.00
2023-06-04T06:07:19.233Z,94776.00
2023-06-04T06:08:19.252Z,94774.00
2023-06-04T06:09:19.302Z,94776.00
2023-06-04T06:10:19.325Z,94774.00
2023-06-04T06:11:19.356Z,94774.00
2023-06-04T06:12:19.394Z,94770.00
2023-06-04T06:13:19.436Z,94768.00
2023-06-04T06:14:19.471Z,94772.00
2023-06-04T06:15:19.482Z,94770.00
2023-06-04T06:16:19.722Z,94772.00
2023-06-04T06:17:19.576Z,94768.00
2023-06-04T06:18:19.609Z,94770.00
2023-06-04T06:19:19.667Z,94770.00
2023-06-04T06:20:19.683Z,94768.00
2023-06-04T06:21:19.750Z,94772.00
2023-06-04T06:22:19.788Z,94768.00
2023-06-04T06:23:19.841Z,94770.00
2023-06-04T06:24:19.878Z,94768.00
2023-06-04T06:25:19.929Z,94768.00
2023-06-04T06:26:21.125Z,94772.00
2023-06-04T06:27:20.031Z,94770.00
2023-06-04T06:28:20.068Z,94768.00
2023-06-04T06:29:20.130Z,94766.00
2023-06-04T06:30:20.177Z,94768.00
2023-06-04T06:31:20.250Z,94768.00
2023-06-04T06:32:20.316Z,94766.00
2023-06-04T06:33:20.314Z,94766.00
2023-06-04T06:34:20.350Z,94766.00
2023-06-04T06:35:20.419Z,94764.00
2023-06-04T06:36:20.458Z,94762.00
2023-06-04T06:37:20.527Z,94762.00
2023-06-04T06:38:20.573Z,94762.00
2023-06-04T06:39:20.634Z,94760.00
2023-06-04T06:40:20.683Z,94762.00
2023-06-04T06:41:20.728Z,94762.00
2023-06-04T06:42:20.779Z,94760.00
2023-06-04T06:43:20.837Z,94760.00
2023-06-04T06:44:20.881Z,94762.00
2023-06-04T06:45:20.928Z,94766.00
2023-06-04T06:46:21.026Z,94764.00
2023-06-04T06:47:21.016Z,94762.00
2023-06-04T06:48:21.081Z,94764.00
2023-06-04T06:49:21.139Z,94762.00
2023-06-04T06:50:21.185Z,94762.00
2023-06-04T06:51:21.204Z,94758.00
2023-06-04T06:52:21.244Z,94758.00
2023-06-04T06:53:21.300Z,94760.00
2023-06-04T06:54:21.370Z,94760.00
2023-06-04T06:55:21.413Z,94758.00
2023-06-04T06:56:21.458Z,94758.00
2023-06-04T06:57:21.540Z,94758.00
2023-06-04T06:58:21.559Z,94756.00
2023-06-04T06:59:21.594Z,94755.00
2023-06-04T07:00:21.652Z,94755.00
2023-06-04T07:01:21.711Z,94755.00
2023-06-04T07:02:21.895Z,94755.00
2023-06-04T07:03:21.840Z,94755.00
2023-06-04T07:04:21.887Z,94753.00
2023-06-04T07:05:21.906Z,94756.00
2023-06-04T07:06:21.965Z,94756.00
2023-06-04T07:07:22.014Z,94755.00
2023-06-04T07:08:22.082Z,94753.00
2023-06-04T07:09:22.114Z,94753.00
2023-06-04T07:10:22.181Z,94751.00
2023-06-04T07:11:22.222Z,94749.00
2023-06-04T07:12:22.248Z,94745.00
2023-06-04T07:13:22.296Z,94743.00
2023-06-04T07:14:22.354Z,94743.00
2023-06-04T07:15:22.375Z,94741.00
2023-06-04T07:16:22.438Z,94741.00
2023-06-04T07:17:22.573Z,94739.00
2023-06-04T07:18:22.521Z,94739.00
2023-06-04T07:19:22.559Z,94739.00
2023-06-04T07:20:22.615Z,94739.00
2023-06-04T07:21:22.683Z,94739.00
2023-06-04T07:22:22.744Z,94739.00
2023-06-04T07:23:22.791Z,94735.00
2023-06-04T07:24:22.816Z,94737.00
2023-06-04T07:25:22.851Z,94735.00
2023-06-04T07:26:22.912Z,94737.00
2023-06-04T07:27:22.963Z,94735.00
2023-06-04T07:28:22.998Z,94737.00
2023-06-04T07:29:23.051Z,94735.00
2023-06-04T07:30:23.104Z,94739.00
2023-06-04T07:31:23.158Z,94739.00
2023-06-04T07:32:23.231Z,94739.00
2023-06-04T07:33:23.232Z,94739.00
2023-06-04T07:34:23.270Z,94737.00
2023-06-04T07:35:23.304Z,94739.00
2023-06-04T07:36:23.369Z,94735.00
2023-06-04T07:37:23.410Z,94737.00
2023-06-04T07:38:23.466Z,94737.00
2023-06-04T07:39:25.255Z,94735.00
2023-06-04T07:40:23.545Z,94735.00
2023-06-04T07:41:23.483Z,94733.00
2023-06-04T07:42:23.481Z,94731.00
2023-06-04T07:43:23.464Z,94729.00
2023-06-04T07:44:23.482Z,94729.00
2023-06-04T07:45:23.485Z,94727.00
2023-06-04T07:46:23.488Z,94725.00
2023-06-04T07:47:23.545Z,94727.00
2023-06-04T07:48:23.446Z,94721.00
2023-06-04T07:49:23.462Z,94725.00
2023-06-04T07:50:23.459Z,94723.00
2023-06-04T07:51:23.413Z,94721.00
2023-06-04T07:52:23.418Z,94721.00
2023-06-04T07:53:23.398Z,94721.00
2023-06-04T07:54:23.402Z,94721.00
2023-06-04T07:55:23.411Z,94719.00
2023-06-04T07:56:23.400Z,94717.00
2023-06-04T07:57:23.379Z,94715.00
2023-06-04T07:58:23.367Z,94715.00
2023-06-04T07:59:23.381Z,94713.00
2023-06-04T08:00:23.443Z,94709.00
2023-06-04T08:01:23.343Z,94711.00
2023-06-04T08:02:23.412Z,94711.00
2023-06-04T08:03:23.474Z,94709.00
2023-06-04T08:04:23.408Z,94711.00
2023-06-04T08:05:23.332Z,94709.00
2023-06-04T08:06:23.325Z,94707.00
2023-06-04T08:07:23.324Z,94707.00
2023-06-04T08:08:23.318Z,94709.00
2023-06-04T08:09:23.319Z,94707.00
2023-06-04T08:10:23.288Z,94707.00
2023-06-04T08:11:23.297Z,94709.00
2023-06-04T08:12:23.286Z,94707.00
2023-06-04T08:13:23.309Z,94709.00
2023-06-04T08:14:23.275Z,94709.00
2023-06-04T08:15:23.262Z,94709.00
2023-06-04T08:16:23.348Z,94711.00
2023-06-04T08:17:23.273Z,94709.00
2023-06-04T08:18:23.237Z,94707.00
2023-06-04T08:19:23.235Z,94707.00
2023-06-04T08:20:25.215Z,94705.00
2023-06-04T08:21:23.208Z,94705.00
2023-06-04T08:22:23.211Z,94704.00
2023-06-04T08:23:23.243Z,94702.00
2023-06-04T08:24:23.202Z,94700.00
2023-06-04T08:25:23.215Z,94700.00
2023-06-04T08:26:23.178Z,94696.00
2023-06-04T08:27:23.186Z,94698.00
2023-06-04T08:28:23.170Z,94698.00
2023-06-04T08:29:23.169Z,94698.00
2023-06-04T08:30:23.291Z,94698.00
2023-06-04T08:31:23.172Z,94696.00
2023-06-04T08:32:23.216Z,94694.00
2023-06-04T08:33:23.156Z,94696.00
2023-06-04T08:34:23.153Z,94698.00
2023-06-04T08:35:23.132Z,94698.00
2023-06-04T08:36:23.130Z,94696.00
2023-06-04T08:37:23.110Z,94694.00
2023-06-04T08:38:23.111Z,94694.00
2023-06-04T08:39:23.092Z,94694.00
2023-06-04T08:40:23.087Z,94692.00
2023-06-04T08:41:23.072Z,94690.00
2023-06-04T08:42:23.068Z,94692.00
2023-06-04T08:43:23.064Z,94690.00
2023-06-04T08:44:23.055Z,94690.00
2023-06-04T08:45:23.047Z,94686.00
2023-06-04T08:46:23.105Z,94688.00
2023-06-04T08:47:23.081Z,94688.00
2023-06-04T08:48:23.034Z,94686.00
2023-06-04T08:49:23.029Z,94684.00
2023-06-04T08:50:23.175Z,94682.00
2023-06-04T08:51:23.008Z,94682.00
2023-06-04T08:52:22.998Z,94684.00
2023-06-04T08:53:23.008Z,94682.00
2023-06-04T08:54:22.988Z,94684.00
2023-06-04T08:55:22.990Z,94682.00
2023-06-04T08:56:22.983Z,94680.00
2023-06-04T08:57:22.973Z,94684.00
2023-06-04T08:58:22.971Z,94680.00
2023-06-04T08:59:22.977Z,94680.00
2023-06-04T09:00:22.964Z,94682.00
2023-06-04T09:01:23.037Z,94682.00
2023-06-04T09:02:22.967Z,94682.00
2023-06-04T09:03:22.942Z,94680.00
2023-06-04T09:04:22.933Z,94682.00
2023-06-04T09:05:22.934Z,94678.00
2023-06-04T09:06:22.925Z,94680.00
2023-06-04T09:07:22.919Z,94680.00
2023-06-04T09:08:22.910Z,94678.00
2023-06-04T09:09:22.938Z,94678.00
2023-06-04T09:10:22.904Z,94676.00
2023-06-04T09:11:22.904Z,94678.00
2023-06-04T09:12:22.883Z,94678.00
2023-06-04T09:13:22.925Z,94676.00
2023-06-04T09:14:22.939Z,94678.00
2023-06-04T09:15:22.983Z,94676.00
2023-06-04T09:16:23.059Z,94676.00
2023-06-04T09:17:23.106Z,94674.00
2023-06-04T09:18:24.982Z,94674.00
2023-06-04T09:19:23.180Z,94674.00
2023-06-04T09:20:23.193Z,94674.00
2023-06-04T09:21:23.233Z,94676.00
2023-06-04T09:22:23.261Z,94674.00
2023-06-04T09:23:23.290Z,94674.00
2023-06-04T09:24:23.316Z,94676.00
2023-06-04T09:25:23.344Z,94676.00
2023-06-04T09:26:23.374Z,94674.00
2023-06-04T09:27:23.435Z,94672.00
2023-06-04T09:28:23.440Z,94670.00
2023-06-04T09:29:23.448Z,94668.00
2023-06-04T09:30:23.488Z,94668.00
2023-06-04T09:31:23.576Z,94668.00
2023-06-04T09:32:23.569Z,94666.00
2023-06-04T09:33:23.577Z,94666.00
2023-06-04T09:34:23.608Z,94662.00
2023-06-04T09:35:23.657Z,94662.00
2023-06-04T09:36:23.670Z,94658.00
2023-06-04T09:37:23.780Z,94660.00
2023-06-04T09:38:23.781Z,94660.00
2023-06-04T09:39:23.765Z,94657.00
2023-06-04T09:40:23.804Z,94658.00
2023-06-04T09:41:26.393Z,94657.00
2023-06-04T09:42:23.827Z,94655.00
2023-06-04T09:43:23.811Z,94653.00
2023-06-04T09:44:23.794Z,94657.00
2023-06-04T09:45:23.835Z,94657.00
2023-06-04T09:46:23.827Z,94655.00
2023-06-04T09:47:23.825Z,94658.00
2023-06-04T09:48:23.770Z,94657.00
2023-06-04T09:49:23.771Z,94657.00
2023-06-04T09:50:23.773Z,94658.00
2023-06-04T09:51:23.774Z,94660.00
2023-06-04T09:52:23.746Z,94657.00
2023-06-04T09:53:23.827Z,94660.00
2023-06-04T09:54:23.733Z,94657.00
2023-06-04T09:55:23.856Z,94657.00
2023-06-04T09:56:23.724Z,94651.00
2023-06-04T09:57:23.716Z,94651.00
2023-06-04T09:58:23.717Z,94649.00
2023-06-04T09:59:23.719Z,94647.00
2023-06-04T10:00:23.760Z,94645.00
2023-06-04T10:01:23.757Z,94645.00
2023-06-04T10:02:23.718Z,94643.00
2023-06-04T10:03:23.790Z,94641.00
2023-06-04T10:04:25.372Z,94641.00
2023-06-04T10:05:23.674Z,94639.00
2023-06-04T10:06:23.666Z,94641.00
2023-06-04T10:07:23.673Z,94639.00
2023-06-04T10:08:23.662Z,94641.00
2023-06-04T10:09:23.657Z,94641.00
2023-06-04T10:10:23.659Z,94639.00
2023-06-04T10:11:23.635Z,94641.00
2023-06-04T10:12:23.642Z,94639.00
2023-06-04T10:13:23.647Z,94639.00
2023-06-04T10:14:23.622Z,94639.00
2023-06-04T10:15:23.631Z,94639.00
2023-06-04T10:16:33.422Z,94637.00
2023-06-04T10:17:24.612Z,94637.00
2023-06-04T10:18:23.607Z,94639.00
2023-06-04T10:19:23.702Z,94639.00
2023-06-04T10:20:23.652Z,94637.00
2023-06-04T10:21:23.595Z,94639.00
2023-06-04T10:22:23.579Z,94637.00
2023-06-04T10:23:23.620Z,94637.00
2023-06-04T10:24:23.572Z,94637.00
2023-06-04T10:25:23.565Z,94637.00
2023-06-04T10:26:23.553Z,94635.00
2023-06-04T10:27:23.562Z,94635.00
2023-06-04T10:28:23.536Z,94633.00
2023-06-04T10:29:23.530Z,94633.00
2023-06-04T10:30:23.534Z,94631.00
2023-06-04T10:31:23.549Z,94631.00
2023-06-04T10:32:23.558Z,94629.00
2023-06-04T10:33:23.530Z,94627.00
2023-06-04T10:34:23.557Z,94619.00
2023-06-04T10:35:23.574Z,94629.00
2023-06-04T10:36:23.614Z,94631.00
2023-06-04T10:37:23.615Z,94629.00
2023-06-04T10:38:23.649Z,94629.00
2023-06-04T10:39:23.683Z,94631.00
2023-06-04T10:40:23.713Z,94631.00
2023-06-04T10:41:23.738Z,94631.00
2023-06-04T10:42:23.772Z,94633.00
2023-06-04T10:43:23.792Z,94633.00
2023-06-04T10:44:23.856Z,94633.00
2023-06-04T10:45:23.841Z,94631.00
2023-06-04T10:46:23.880Z,94631.00
2023-06-04T10:47:23.957Z,94629.00
2023-06-04T10:48:23.946Z,94629.00
2023-06-04T10:49:23.970Z,94627.00
2023-06-04T10:50:23.987Z,94627.00
2023-06-04T10:51:24.014Z,94619.00
2023-06-04T10:52:24.057Z,94619.00
2023-06-04T10:53:24.079Z,94619.00
2023-06-04T10:54:24.093Z,94617.00
2023-06-04T10:55:24.148Z,94617.00
2023-06-04T10:56:24.155Z,94617.00
2023-06-04T10:57:24.187Z,94617.00
2023-06-04T10:58:24.226Z,94617.00
2023-06-04T10:59:24.264Z,94619.00
2023-06-04T11:00:24.280Z,94617.00
2023-06-04T11:01:24.313Z,94615.00
2023-06-04T11:02:24.394Z,94613.00
2023-06-04T11:03:24.488Z,94607.00
2023-06-04T11:04:24.381Z,94611.00
2023-06-04T11:05:24.411Z,94613.00
2023-06-04T11:06:24.460Z,94611.00
2023-06-04T11:07:24.494Z,94611.00
2023-06-04T11:08:24.512Z,94611.00
2023-06-04T11:09:24.526Z,94605.00
2023-06-04T11:10:24.559Z,94611.00
2023-06-04T11:11:24.583Z,94609.00
2023-06-04T11:12:24.628Z,94604.00
2023-06-04T11:13:24.651Z,94604.00
2023-06-04T11:14:24.692Z,94605.00
2023-06-04T11:15:24.722Z,94604.00
2023-06-04T11:16:24.813Z,94602.00
2023-06-04T11:17:24.880Z,94602.00
2023-06-04T11:18:24.807Z,94604.00
2023-06-04T11:19:24.841Z,94602.00
2023-06-04T11:20:24.866Z,94602.00
2023-06-04T11:21:25.799Z,94602.00
2023-06-04T11:22:24.894Z,94600.00
2023-06-04T11:23:24.921Z,94600.00
2023-06-04T11:24:24.874Z,94600.00
2023-06-04T11:25:24.887Z,94598.00
2023-06-04T11:26:24.868Z,94598.00
2023-06-04T11:27:36.456Z,94600.00
2023-06-04T11:28:25.869Z,94600.00
2023-06-04T11:29:24.854Z,94598.00
2023-06-04T11:30:24.858Z,94600.00
2023-06-04T11:31:24.879Z,94600.00
2023-06-04T11:32:24.876Z,94598.00
2023-06-04T11:33:24.822Z,94596.00
2023-06-04T11:34:24.824Z,94598.00
2023-06-04T11:35:24.829Z,94600.00
2023-06-04T11:36:24.800Z,94594.00
2023-06-04T11:37:24.806Z,94600.00
2023-06-04T11:38:24.789Z,94600.00
2023-06-04T11:39:24.794Z,94600.00
2023-06-04T11:40:24.796Z,94596.00
2023-06-04T11:41:24.780Z,94596.00
2023-06-04T11:42:24.777Z,94596.00
2023-06-04T11:43:24.830Z,94592.00
2023-06-04T11:44:24.843Z,94592.00